Otwock, Poland
Current Conditions -  °F | °C
As of 1:00 AM on Thursday 27 Nov 2014 (Local Time) from EPWA Reporting Station
Light Snow Light Snow  
Wind Chill: 28°   Ceiling: 600
Heat Index: 34°   Visibility: 4mi
Dew Point: 32°   Wind: 7mph
Humidity: 93%   Direction: 150°SSE
Pressure: 30.27"   Gusts: NA
Location:  52.11°N, 21.28°E
Report Text: EPWA 262300Z 15006KT 7000 -SN BKN006 01/M00 Q1025 TEMPO 5000 BR BKN005
Loading
Personal Weather Stations






























Interactive Weather Map New forecast layout! Learn more

10-Day Weather Forecast

Advertisements
Track Severe Weather on mobile